sensor_id;sensor_type;location;lat;lon;timestamp;P1;durP1;ratioP1;P2;durP2;ratioP2
37339;SDS011;23223;51.006;7.610;2024-03-06T00:01:33;39.33;;;23.20;;
37339;SDS011;23223;51.006;7.610;2024-03-06T00:03:59;33.30;;;21.20;;
37339;SDS011;23223;51.006;7.610;2024-03-06T00:06:25;32.80;;;21.55;;
37339;SDS011;23223;51.006;7.610;2024-03-06T00:08:50;31.45;;;20.30;;
37339;SDS011;23223;51.006;7.610;2024-03-06T00:11:18;33.33;;;21.25;;
37339;SDS011;23223;51.006;7.610;2024-03-06T00:13:44;32.00;;;20.50;;
37339;SDS011;23223;51.006;7.610;2024-03-06T00:16:12;32.50;;;21.30;;
37339;SDS011;23223;51.006;7.610;2024-03-06T00:18:37;30.08;;;20.52;;
37339;SDS011;23223;51.006;7.610;2024-03-06T00:21:03;29.23;;;19.35;;
37339;SDS011;23223;51.006;7.610;2024-03-06T00:23:29;27.17;;;19.25;;
37339;SDS011;23223;51.006;7.610;2024-03-06T00:25:55;29.83;;;19.65;;
37339;SDS011;23223;51.006;7.610;2024-03-06T00:28:21;29.77;;;20.27;;
37339;SDS011;23223;51.006;7.610;2024-03-06T00:30:47;26.02;;;18.73;;
37339;SDS011;23223;51.006;7.610;2024-03-06T00:33:12;28.58;;;18.98;;
37339;SDS011;23223;51.006;7.610;2024-03-06T00:35:38;28.63;;;19.88;;
37339;SDS011;23223;51.006;7.610;2024-03-06T00:38:04;27.83;;;18.85;;
37339;SDS011;23223;51.006;7.610;2024-03-06T00:40:29;26.13;;;19.15;;
37339;SDS011;23223;51.006;7.610;2024-03-06T00:42:55;33.40;;;20.02;;
37339;SDS011;23223;51.006;7.610;2024-03-06T00:45:22;29.08;;;18.55;;
37339;SDS011;23223;51.006;7.610;2024-03-06T00:47:47;28.38;;;19.67;;
37339;SDS011;23223;51.006;7.610;2024-03-06T00:50:13;26.00;;;18.52;;
37339;SDS011;23223;51.006;7.610;2024-03-06T00:52:41;30.63;;;18.77;;
37339;SDS011;23223;51.006;7.610;2024-03-06T00:55:07;28.90;;;19.42;;
37339;SDS011;23223;51.006;7.610;2024-03-06T00:57:33;14.57;;;11.10;;
37339;SDS011;23223;51.006;7.610;2024-03-06T00:59:59;30.13;;;18.92;;
37339;SDS011;23223;51.006;7.610;2024-03-06T01:02:25;20.38;;;14.90;;
37339;SDS011;23223;51.006;7.610;2024-03-06T01:04:53;18.77;;;14.07;;
37339;SDS011;23223;51.006;7.610;2024-03-06T01:07:19;26.27;;;17.85;;
37339;SDS011;23223;51.006;7.610;2024-03-06T01:09:44;29.13;;;17.73;;
37339;SDS011;23223;51.006;7.610;2024-03-06T01:12:10;18.83;;;13.50;;
37339;SDS011;23223;51.006;7.610;2024-03-06T01:14:36;22.05;;;16.25;;
37339;SDS011;23223;51.006;7.610;2024-03-06T01:17:01;27.77;;;17.67;;
37339;SDS011;23223;51.006;7.610;2024-03-06T01:19:27;23.80;;;17.52;;
37339;SDS011;23223;51.006;7.610;2024-03-06T01:21:53;26.35;;;17.80;;
37339;SDS011;23223;51.006;7.610;2024-03-06T01:24:18;26.35;;;17.23;;
37339;SDS011;23223;51.006;7.610;2024-03-06T01:26:44;26.85;;;17.90;;
37339;SDS011;23223;51.006;7.610;2024-03-06T01:29:09;26.45;;;16.23;;
37339;SDS011;23223;51.006;7.610;2024-03-06T01:31:35;21.55;;;15.02;;
37339;SDS011;23223;51.006;7.610;2024-03-06T01:34:00;25.60;;;16.60;;
37339;SDS011;23223;51.006;7.610;2024-03-06T01:36:28;28.88;;;17.70;;
37339;SDS011;23223;51.006;7.610;2024-03-06T01:38:53;24.02;;;17.52;;
37339;SDS011;23223;51.006;7.610;2024-03-06T01:41:19;22.85;;;17.25;;
37339;SDS011;23223;51.006;7.610;2024-03-06T01:43:45;25.02;;;17.10;;
37339;SDS011;23223;51.006;7.610;2024-03-06T01:46:11;18.27;;;12.27;;
37339;SDS011;23223;51.006;7.610;2024-03-06T01:48:37;25.50;;;15.82;;
37339;SDS011;23223;51.006;7.610;2024-03-06T01:51:04;28.80;;;17.77;;
37339;SDS011;23223;51.006;7.610;2024-03-06T01:53:30;26.77;;;17.90;;
37339;SDS011;23223;51.006;7.610;2024-03-06T01:55:57;26.13;;;16.85;;
37339;SDS011;23223;51.006;7.610;2024-03-06T01:58:23;25.58;;;15.95;;
37339;SDS011;23223;51.006;7.610;2024-03-06T02:00:49;25.15;;;18.17;;
37339;SDS011;23223;51.006;7.610;2024-03-06T02:03:15;30.30;;;17.33;;
37339;SDS011;23223;51.006;7.610;2024-03-06T02:05:44;30.73;;;18.35;;
37339;SDS011;23223;51.006;7.610;2024-03-06T02:08:09;20.65;;;14.70;;
37339;SDS011;23223;51.006;7.610;2024-03-06T02:10:35;34.13;;;18.83;;
37339;SDS011;23223;51.006;7.610;2024-03-06T02:13:01;28.92;;;17.63;;
37339;SDS011;23223;51.006;7.610;2024-03-06T02:15:26;28.25;;;18.77;;
37339;SDS011;23223;51.006;7.610;2024-03-06T02:17:52;28.17;;;18.15;;
37339;SDS011;23223;51.006;7.610;2024-03-06T02:20:23;29.95;;;18.60;;
37339;SDS011;23223;51.006;7.610;2024-03-06T02:22:49;30.30;;;18.23;;
37339;SDS011;23223;51.006;7.610;2024-03-06T02:25:15;23.48;;;16.52;;
37339;SDS011;23223;51.006;7.610;2024-03-06T02:27:42;25.50;;;16.48;;
37339;SDS011;23223;51.006;7.610;2024-03-06T02:30:08;28.63;;;17.55;;
37339;SDS011;23223;51.006;7.610;2024-03-06T02:32:35;26.45;;;17.05;;
37339;SDS011;23223;51.006;7.610;2024-03-06T02:35:01;25.90;;;17.80;;
37339;SDS011;23223;51.006;7.610;2024-03-06T02:37:28;28.10;;;18.02;;
37339;SDS011;23223;51.006;7.610;2024-03-06T02:39:54;30.25;;;19.15;;
37339;SDS011;23223;51.006;7.610;2024-03-06T02:42:19;32.63;;;18.40;;
37339;SDS011;23223;51.006;7.610;2024-03-06T02:44:45;33.22;;;20.35;;
37339;SDS011;23223;51.006;7.610;2024-03-06T02:47:11;30.92;;;19.85;;
37339;SDS011;23223;51.006;7.610;2024-03-06T02:49:36;54.80;;;20.75;;
37339;SDS011;23223;51.006;7.610;2024-03-06T02:52:02;61.65;;;17.83;;
37339;SDS011;23223;51.006;7.610;2024-03-06T02:54:28;66.55;;;19.55;;
37339;SDS011;23223;51.006;7.610;2024-03-06T02:56:54;123.40;;;19.67;;
37339;SDS011;23223;51.006;7.610;2024-03-06T02:59:19;96.63;;;19.10;;
37339;SDS011;23223;51.006;7.610;2024-03-06T03:01:45;110.97;;;19.48;;
37339;SDS011;23223;51.006;7.610;2024-03-06T03:04:10;86.57;;;18.08;;
37339;SDS011;23223;51.006;7.610;2024-03-06T03:06:36;117.15;;;18.70;;
37339;SDS011;23223;51.006;7.610;2024-03-06T03:09:02;55.30;;;15.82;;
37339;SDS011;23223;51.006;7.610;2024-03-06T03:11:28;52.15;;;17.30;;
37339;SDS011;23223;51.006;7.610;2024-03-06T03:13:55;62.80;;;18.65;;
37339;SDS011;23223;51.006;7.610;2024-03-06T03:16:20;78.07;;;17.20;;
37339;SDS011;23223;51.006;7.610;2024-03-06T03:18:46;77.55;;;18.08;;
37339;SDS011;23223;51.006;7.610;2024-03-06T03:21:13;40.42;;;17.55;;
37339;SDS011;23223;51.006;7.610;2024-03-06T03:23:39;53.35;;;18.08;;
37339;SDS011;23223;51.006;7.610;2024-03-06T03:26:05;51.00;;;17.88;;
37339;SDS011;23223;51.006;7.610;2024-03-06T03:28:32;27.65;;;15.35;;
37339;SDS011;23223;51.006;7.610;2024-03-06T03:30:58;18.58;;;9.90;;
37339;SDS011;23223;51.006;7.610;2024-03-06T03:33:24;11.55;;;8.05;;
37339;SDS011;23223;51.006;7.610;2024-03-06T03:35:49;19.50;;;14.15;;
37339;SDS011;23223;51.006;7.610;2024-03-06T03:38:15;23.13;;;15.77;;
37339;SDS011;23223;51.006;7.610;2024-03-06T03:40:41;15.15;;;11.68;;
37339;SDS011;23223;51.006;7.610;2024-03-06T03:43:07;15.48;;;9.10;;
37339;SDS011;23223;51.006;7.610;2024-03-06T03:45:33;13.57;;;8.20;;
37339;SDS011;23223;51.006;7.610;2024-03-06T03:47:59;15.45;;;10.68;;
37339;SDS011;23223;51.006;7.610;2024-03-06T03:50:27;15.95;;;10.13;;
37339;SDS011;23223;51.006;7.610;2024-03-06T03:52:54;29.10;;;11.38;;
37339;SDS011;23223;51.006;7.610;2024-03-06T03:55:20;24.20;;;12.60;;
37339;SDS011;23223;51.006;7.610;2024-03-06T03:57:46;20.45;;;12.35;;
37339;SDS011;23223;51.006;7.610;2024-03-06T04:00:12;35.13;;;12.32;;
37339;SDS011;23223;51.006;7.610;2024-03-06T04:02:38;25.80;;;12.45;;
37339;SDS011;23223;51.006;7.610;2024-03-06T04:05:04;10.75;;;8.48;;
37339;SDS011;23223;51.006;7.610;2024-03-06T04:07:30;34.95;;;13.50;;
37339;SDS011;23223;51.006;7.610;2024-03-06T04:09:56;25.77;;;13.50;;
37339;SDS011;23223;51.006;7.610;2024-03-06T04:12:23;30.42;;;12.80;;
37339;SDS011;23223;51.006;7.610;2024-03-06T04:14:50;17.75;;;13.13;;
37339;SDS011;23223;51.006;7.610;2024-03-06T04:17:15;17.95;;;12.73;;
37339;SDS011;23223;51.006;7.610;2024-03-06T04:19:41;22.25;;;14.10;;
37339;SDS011;23223;51.006;7.610;2024-03-06T04:22:06;19.25;;;13.23;;
37339;SDS011;23223;51.006;7.610;2024-03-06T04:24:32;21.75;;;14.02;;
37339;SDS011;23223;51.006;7.610;2024-03-06T04:26:58;22.27;;;13.65;;
37339;SDS011;23223;51.006;7.610;2024-03-06T04:29:23;33.97;;;14.27;;
37339;SDS011;23223;51.006;7.610;2024-03-06T04:31:49;34.63;;;14.27;;
37339;SDS011;23223;51.006;7.610;2024-03-06T04:34:14;33.05;;;15.25;;
37339;SDS011;23223;51.006;7.610;2024-03-06T04:36:40;37.50;;;16.13;;
37339;SDS011;23223;51.006;7.610;2024-03-06T04:39:08;32.95;;;13.68;;
37339;SDS011;23223;51.006;7.610;2024-03-06T04:41:35;35.42;;;16.40;;
37339;SDS011;23223;51.006;7.610;2024-03-06T04:44:00;43.90;;;15.73;;
37339;SDS011;23223;51.006;7.610;2024-03-06T04:46:26;30.33;;;15.25;;
37339;SDS011;23223;51.006;7.610;2024-03-06T04:48:52;34.10;;;15.27;;
37339;SDS011;23223;51.006;7.610;2024-03-06T04:51:18;31.23;;;15.68;;
37339;SDS011;23223;51.006;7.610;2024-03-06T04:53:44;17.33;;;12.20;;
37339;SDS011;23223;51.006;7.610;2024-03-06T04:56:10;20.35;;;14.00;;
37339;SDS011;23223;51.006;7.610;2024-03-06T04:58:36;30.10;;;16.15;;
37339;SDS011;23223;51.006;7.610;2024-03-06T05:01:02;27.90;;;14.75;;
37339;SDS011;23223;51.006;7.610;2024-03-06T05:03:30;24.08;;;15.63;;
37339;SDS011;23223;51.006;7.610;2024-03-06T05:05:55;19.75;;;13.70;;
37339;SDS011;23223;51.006;7.610;2024-03-06T05:08:22;21.05;;;14.25;;
37339;SDS011;23223;51.006;7.610;2024-03-06T05:10:47;26.27;;;14.95;;
37339;SDS011;23223;51.006;7.610;2024-03-06T05:13:13;25.25;;;16.70;;
37339;SDS011;23223;51.006;7.610;2024-03-06T05:15:40;20.75;;;14.63;;
37339;SDS011;23223;51.006;7.610;2024-03-06T05:18:05;13.07;;;9.48;;
37339;SDS011;23223;51.006;7.610;2024-03-06T05:20:31;23.08;;;15.00;;
37339;SDS011;23223;51.006;7.610;2024-03-06T05:22:57;23.67;;;15.57;;
37339;SDS011;23223;51.006;7.610;2024-03-06T05:25:22;22.60;;;14.13;;
37339;SDS011;23223;51.006;7.610;2024-03-06T05:27:49;22.73;;;15.05;;
37339;SDS011;23223;51.006;7.610;2024-03-06T05:30:15;27.30;;;14.57;;
37339;SDS011;23223;51.006;7.610;2024-03-06T05:32:41;23.98;;;13.35;;
37339;SDS011;23223;51.006;7.610;2024-03-06T05:35:06;27.70;;;15.07;;
37339;SDS011;23223;51.006;7.610;2024-03-06T05:37:35;22.30;;;15.38;;
37339;SDS011;23223;51.006;7.610;2024-03-06T05:40:01;21.83;;;12.95;;
37339;SDS011;23223;51.006;7.610;2024-03-06T05:42:29;19.55;;;13.32;;
37339;SDS011;23223;51.006;7.610;2024-03-06T05:44:56;15.85;;;9.63;;
37339;SDS011;23223;51.006;7.610;2024-03-06T05:47:28;11.40;;;8.55;;
37339;SDS011;23223;51.006;7.610;2024-03-06T05:49:53;12.98;;;8.50;;
37339;SDS011;23223;51.006;7.610;2024-03-06T05:52:19;27.77;;;15.27;;
37339;SDS011;23223;51.006;7.610;2024-03-06T05:54:44;9.63;;;7.20;;
37339;SDS011;23223;51.006;7.610;2024-03-06T05:57:10;21.17;;;15.63;;
37339;SDS011;23223;51.006;7.610;2024-03-06T05:59:36;34.22;;;22.58;;
37339;SDS011;23223;51.006;7.610;2024-03-06T06:02:02;27.30;;;18.60;;
37339;SDS011;23223;51.006;7.610;2024-03-06T06:04:29;31.42;;;16.67;;
37339;SDS011;23223;51.006;7.610;2024-03-06T06:06:54;31.00;;;15.00;;
37339;SDS011;23223;51.006;7.610;2024-03-06T06:09:20;25.60;;;15.70;;
37339;SDS011;23223;51.006;7.610;2024-03-06T06:11:45;38.17;;;22.52;;
37339;SDS011;23223;51.006;7.610;2024-03-06T06:14:12;29.65;;;20.92;;
37339;SDS011;23223;51.006;7.610;2024-03-06T06:16:38;29.90;;;22.50;;
37339;SDS011;23223;51.006;7.610;2024-03-06T06:19:06;31.70;;;19.60;;
37339;SDS011;23223;51.006;7.610;2024-03-06T06:21:31;28.83;;;17.67;;
37339;SDS011;23223;51.006;7.610;2024-03-06T06:24:00;26.95;;;18.35;;
37339;SDS011;23223;51.006;7.610;2024-03-06T06:26:26;26.33;;;16.90;;
37339;SDS011;23223;51.006;7.610;2024-03-06T06:28:51;14.50;;;10.55;;
37339;SDS011;23223;51.006;7.610;2024-03-06T06:31:17;16.30;;;10.13;;
37339;SDS011;23223;51.006;7.610;2024-03-06T06:33:43;15.88;;;10.90;;
37339;SDS011;23223;51.006;7.610;2024-03-06T06:36:10;17.90;;;13.48;;
37339;SDS011;23223;51.006;7.610;2024-03-06T06:38:36;17.73;;;12.35;;
37339;SDS011;23223;51.006;7.610;2024-03-06T06:41:01;18.30;;;11.02;;
37339;SDS011;23223;51.006;7.610;2024-03-06T06:43:27;19.13;;;13.82;;
37339;SDS011;23223;51.006;7.610;2024-03-06T06:45:55;17.50;;;13.30;;
37339;SDS011;23223;51.006;7.610;2024-03-06T06:48:26;18.55;;;13.50;;
37339;SDS011;23223;51.006;7.610;2024-03-06T06:50:52;21.05;;;13.75;;
37339;SDS011;23223;51.006;7.610;2024-03-06T06:53:17;19.70;;;13.07;;
37339;SDS011;23223;51.006;7.610;2024-03-06T06:55:43;18.20;;;14.07;;
37339;SDS011;23223;51.006;7.610;2024-03-06T06:58:09;17.70;;;13.85;;
37339;SDS011;23223;51.006;7.610;2024-03-06T07:00:34;18.17;;;14.15;;
37339;SDS011;23223;51.006;7.610;2024-03-06T07:03:02;22.45;;;15.30;;
37339;SDS011;23223;51.006;7.610;2024-03-06T07:05:28;21.90;;;15.10;;
37339;SDS011;23223;51.006;7.610;2024-03-06T07:07:54;18.90;;;13.43;;
37339;SDS011;23223;51.006;7.610;2024-03-06T07:10:20;21.40;;;15.60;;
37339;SDS011;23223;51.006;7.610;2024-03-06T07:12:46;19.08;;;13.07;;
37339;SDS011;23223;51.006;7.610;2024-03-06T07:15:12;18.30;;;14.07;;
37339;SDS011;23223;51.006;7.610;2024-03-06T07:17:38;19.38;;;13.88;;
37339;SDS011;23223;51.006;7.610;2024-03-06T07:20:03;21.40;;;14.23;;
37339;SDS011;23223;51.006;7.610;2024-03-06T07:22:31;19.52;;;14.15;;
37339;SDS011;23223;51.006;7.610;2024-03-06T07:24:58;20.67;;;13.52;;
37339;SDS011;23223;51.006;7.610;2024-03-06T07:27:25;17.48;;;13.57;;
37339;SDS011;23223;51.006;7.610;2024-03-06T07:29:54;21.98;;;12.70;;
37339;SDS011;23223;51.006;7.610;2024-03-06T07:32:19;23.17;;;15.13;;
37339;SDS011;23223;51.006;7.610;2024-03-06T07:34:45;18.27;;;12.57;;
37339;SDS011;23223;51.006;7.610;2024-03-06T07:37:10;22.58;;;12.80;;
37339;SDS011;23223;51.006;7.610;2024-03-06T07:39:36;19.10;;;12.23;;
37339;SDS011;23223;51.006;7.610;2024-03-06T07:42:04;18.42;;;13.10;;
37339;SDS011;23223;51.006;7.610;2024-03-06T07:44:30;18.33;;;13.70;;
37339;SDS011;23223;51.006;7.610;2024-03-06T07:46:56;18.83;;;13.88;;
37339;SDS011;23223;51.006;7.610;2024-03-06T07:49:21;24.83;;;14.10;;
37339;SDS011;23223;51.006;7.610;2024-03-06T07:51:47;20.10;;;14.32;;
37339;SDS011;23223;51.006;7.610;2024-03-06T07:54:13;21.67;;;15.40;;
37339;SDS011;23223;51.006;7.610;2024-03-06T07:56:39;20.80;;;14.00;;
37339;SDS011;23223;51.006;7.610;2024-03-06T07:59:05;24.48;;;14.90;;
37339;SDS011;23223;51.006;7.610;2024-03-06T08:01:30;22.23;;;14.75;;
37339;SDS011;23223;51.006;7.610;2024-03-06T08:03:57;18.98;;;14.27;;
37339;SDS011;23223;51.006;7.610;2024-03-06T08:06:23;20.13;;;14.48;;
37339;SDS011;23223;51.006;7.610;2024-03-06T08:08:54;22.10;;;14.52;;
37339;SDS011;23223;51.006;7.610;2024-03-06T08:11:20;22.73;;;15.63;;
37339;SDS011;23223;51.006;7.610;2024-03-06T08:13:46;19.58;;;14.50;;
37339;SDS011;23223;51.006;7.610;2024-03-06T08:16:14;20.77;;;14.52;;
37339;SDS011;23223;51.006;7.610;2024-03-06T08:18:39;21.90;;;14.10;;
37339;SDS011;23223;51.006;7.610;2024-03-06T08:21:05;21.88;;;14.25;;
37339;SDS011;23223;51.006;7.610;2024-03-06T08:23:31;20.95;;;16.20;;
37339;SDS011;23223;51.006;7.610;2024-03-06T08:25:58;15.43;;;11.52;;
37339;SDS011;23223;51.006;7.610;2024-03-06T08:28:24;21.85;;;14.77;;
37339;SDS011;23223;51.006;7.610;2024-03-06T08:30:50;16.55;;;10.05;;
37339;SDS011;23223;51.006;7.610;2024-03-06T08:33:17;19.95;;;12.15;;
37339;SDS011;23223;51.006;7.610;2024-03-06T08:35:43;11.15;;;7.45;;
37339;SDS011;23223;51.006;7.610;2024-03-06T08:38:08;12.23;;;8.38;;
37339;SDS011;23223;51.006;7.610;2024-03-06T08:40:34;19.45;;;12.75;;
37339;SDS011;23223;51.006;7.610;2024-03-06T08:43:00;13.25;;;8.43;;
37339;SDS011;23223;51.006;7.610;2024-03-06T08:45:25;13.82;;;8.25;;
37339;SDS011;23223;51.006;7.610;2024-03-06T08:47:51;17.67;;;11.32;;
37339;SDS011;23223;51.006;7.610;2024-03-06T08:50:19;26.35;;;16.67;;
37339;SDS011;23223;51.006;7.610;2024-03-06T08:52:45;24.92;;;16.30;;
37339;SDS011;23223;51.006;7.610;2024-03-06T08:55:13;17.88;;;11.27;;
37339;SDS011;23223;51.006;7.610;2024-03-06T08:57:44;18.02;;;12.15;;
37339;SDS011;23223;51.006;7.610;2024-03-06T09:00:12;22.42;;;13.15;;
37339;SDS011;23223;51.006;7.610;2024-03-06T09:02:40;12.15;;;8.68;;
37339;SDS011;23223;51.006;7.610;2024-03-06T09:05:06;16.00;;;10.68;;
37339;SDS011;23223;51.006;7.610;2024-03-06T09:07:35;18.83;;;11.55;;
37339;SDS011;23223;51.006;7.610;2024-03-06T09:10:12;25.25;;;16.58;;
37339;SDS011;23223;51.006;7.610;2024-03-06T09:12:38;24.58;;;15.27;;
37339;SDS011;23223;51.006;7.610;2024-03-06T09:15:07;24.48;;;15.88;;
37339;SDS011;23223;51.006;7.610;2024-03-06T09:17:33;23.83;;;15.32;;
37339;SDS011;23223;51.006;7.610;2024-03-06T09:20:02;23.90;;;14.52;;
37339;SDS011;23223;51.006;7.610;2024-03-06T09:22:37;22.92;;;15.77;;
37339;SDS011;23223;51.006;7.610;2024-03-06T09:25:09;18.33;;;11.80;;
37339;SDS011;23223;51.006;7.610;2024-03-06T09:27:37;20.80;;;15.32;;
37339;SDS011;23223;51.006;7.610;2024-03-06T09:30:03;26.67;;;15.85;;
37339;SDS011;23223;51.006;7.610;2024-03-06T09:32:28;12.00;;;9.00;;
37339;SDS011;23223;51.006;7.610;2024-03-06T09:34:56;24.13;;;15.95;;
37339;SDS011;23223;51.006;7.610;2024-03-06T09:37:23;20.13;;;15.15;;
37339;SDS011;23223;51.006;7.610;2024-03-06T09:39:53;19.42;;;13.77;;
37339;SDS011;23223;51.006;7.610;2024-03-06T09:42:19;15.52;;;12.18;;
37339;SDS011;23223;51.006;7.610;2024-03-06T09:44:52;21.67;;;13.15;;
37339;SDS011;23223;51.006;7.610;2024-03-06T09:47:19;23.63;;;15.43;;
37339;SDS011;23223;51.006;7.610;2024-03-06T09:49:51;19.00;;;13.07;;
37339;SDS011;23223;51.006;7.610;2024-03-06T09:52:21;18.20;;;12.45;;
37339;SDS011;23223;51.006;7.610;2024-03-06T09:54:49;20.75;;;13.55;;
37339;SDS011;23223;51.006;7.610;2024-03-06T09:57:16;16.13;;;11.77;;
37339;SDS011;23223;51.006;7.610;2024-03-06T09:59:49;12.77;;;9.43;;
37339;SDS011;23223;51.006;7.610;2024-03-06T10:02:18;20.50;;;11.35;;
37339;SDS011;23223;51.006;7.610;2024-03-06T10:05:04;17.48;;;12.98;;
37339;SDS011;23223;51.006;7.610;2024-03-06T10:07:31;18.60;;;11.40;;
37339;SDS011;23223;51.006;7.610;2024-03-06T10:09:56;16.98;;;12.43;;
37339;SDS011;23223;51.006;7.610;2024-03-06T10:12:23;7.15;;;5.15;;
37339;SDS011;23223;51.006;7.610;2024-03-06T10:14:51;108.50;;;66.68;;
37339;SDS011;23223;51.006;7.610;2024-03-06T10:17:21;17.88;;;13.27;;
37339;SDS011;23223;51.006;7.610;2024-03-06T10:19:51;49.35;;;29.77;;
37339;SDS011;23223;51.006;7.610;2024-03-06T10:22:21;15.10;;;11.82;;
37339;SDS011;23223;51.006;7.610;2024-03-06T10:24:49;14.43;;;8.77;;
37339;SDS011;23223;51.006;7.610;2024-03-06T10:27:15;12.98;;;9.38;;
37339;SDS011;23223;51.006;7.610;2024-03-06T10:29:44;14.00;;;8.40;;
37339;SDS011;23223;51.006;7.610;2024-03-06T10:32:09;9.18;;;5.82;;
37339;SDS011;23223;51.006;7.610;2024-03-06T10:34:36;13.00;;;7.10;;
37339;SDS011;23223;51.006;7.610;2024-03-06T10:37:03;15.55;;;8.63;;
37339;SDS011;23223;51.006;7.610;2024-03-06T10:39:35;14.70;;;8.75;;
37339;SDS011;23223;51.006;7.610;2024-03-06T10:42:06;13.63;;;8.68;;
37339;SDS011;23223;51.006;7.610;2024-03-06T10:44:33;15.30;;;8.23;;
37339;SDS011;23223;51.006;7.610;2024-03-06T10:47:00;8.65;;;6.70;;
37339;SDS011;23223;51.006;7.610;2024-03-06T10:49:27;12.88;;;9.25;;
37339;SDS011;23223;51.006;7.610;2024-03-06T10:52:01;18.17;;;11.75;;
37339;SDS011;23223;51.006;7.610;2024-03-06T10:54:31;20.33;;;12.02;;
37339;SDS011;23223;51.006;7.610;2024-03-06T10:57:04;11.07;;;6.97;;
37339;SDS011;23223;51.006;7.610;2024-03-06T10:59:29;17.58;;;10.65;;
37339;SDS011;23223;51.006;7.610;2024-03-06T11:01:59;10.93;;;8.05;;
37339;SDS011;23223;51.006;7.610;2024-03-06T11:04:28;15.88;;;12.00;;
37339;SDS011;23223;51.006;7.610;2024-03-06T11:06:58;11.15;;;8.75;;
37339;SDS011;23223;51.006;7.610;2024-03-06T11:09:28;16.42;;;10.90;;
37339;SDS011;23223;51.006;7.610;2024-03-06T11:11:59;16.88;;;12.00;;
37339;SDS011;23223;51.006;7.610;2024-03-06T11:14:46;14.57;;;11.02;;
37339;SDS011;23223;51.006;7.610;2024-03-06T11:17:16;12.38;;;10.00;;
37339;SDS011;23223;51.006;7.610;2024-03-06T11:28:15;15.63;;;11.18;;
37339;SDS011;23223;51.006;7.610;2024-03-06T11:30:46;13.18;;;10.43;;
37339;SDS011;23223;51.006;7.610;2024-03-06T11:33:15;14.25;;;10.50;;
37339;SDS011;23223;51.006;7.610;2024-03-06T11:39:05;6.30;;;4.82;;
37339;SDS011;23223;51.006;7.610;2024-03-06T11:44:17;8.55;;;5.90;;
37339;SDS011;23223;51.006;7.610;2024-03-06T11:46:48;8.38;;;6.38;;
37339;SDS011;23223;51.006;7.610;2024-03-06T11:49:22;11.27;;;8.25;;
37339;SDS011;23223;51.006;7.610;2024-03-06T11:51:51;7.78;;;6.45;;
37339;SDS011;23223;51.006;7.610;2024-03-06T11:54:18;8.15;;;5.72;;
37339;SDS011;23223;51.006;7.610;2024-03-06T11:56:51;11.93;;;7.95;;
37339;SDS011;23223;51.006;7.610;2024-03-06T11:59:24;9.32;;;7.93;;
37339;SDS011;23223;51.006;7.610;2024-03-06T12:01:57;8.85;;;5.57;;
37339;SDS011;23223;51.006;7.610;2024-03-06T12:04:26;11.95;;;9.25;;
37339;SDS011;23223;51.006;7.610;2024-03-06T12:06:52;20.45;;;9.63;;
37339;SDS011;23223;51.006;7.610;2024-03-06T12:09:21;8.20;;;6.60;;
37339;SDS011;23223;51.006;7.610;2024-03-06T12:11:46;9.18;;;6.75;;
37339;SDS011;23223;51.006;7.610;2024-03-06T12:14:17;12.50;;;8.32;;
37339;SDS011;23223;51.006;7.610;2024-03-06T12:16:44;13.63;;;8.93;;
37339;SDS011;23223;51.006;7.610;2024-03-06T12:19:20;12.68;;;9.18;;
37339;SDS011;23223;51.006;7.610;2024-03-06T12:21:47;15.40;;;9.60;;
37339;SDS011;23223;51.006;7.610;2024-03-06T12:24:13;9.63;;;6.95;;
37339;SDS011;23223;51.006;7.610;2024-03-06T12:26:43;12.18;;;8.82;;
37339;SDS011;23223;51.006;7.610;2024-03-06T12:29:09;14.80;;;8.95;;
37339;SDS011;23223;51.006;7.610;2024-03-06T12:31:37;5.70;;;4.03;;
37339;SDS011;23223;51.006;7.610;2024-03-06T12:34:07;7.13;;;4.45;;
37339;SDS011;23223;51.006;7.610;2024-03-06T12:36:48;26.90;;;9.98;;
37339;SDS011;23223;51.006;7.610;2024-03-06T12:39:15;10.00;;;8.07;;
37339;SDS011;23223;51.006;7.610;2024-03-06T12:41:59;15.15;;;9.07;;
37339;SDS011;23223;51.006;7.610;2024-03-06T12:44:25;16.45;;;10.00;;
37339;SDS011;23223;51.006;7.610;2024-03-06T12:46:51;12.98;;;8.65;;
37339;SDS011;23223;51.006;7.610;2024-03-06T12:49:25;13.75;;;9.40;;
37339;SDS011;23223;51.006;7.610;2024-03-06T12:52:06;6.55;;;4.70;;
37339;SDS011;23223;51.006;7.610;2024-03-06T12:54:32;9.07;;;4.93;;
37339;SDS011;23223;51.006;7.610;2024-03-06T12:56:58;6.15;;;4.50;;
37339;SDS011;23223;51.006;7.610;2024-03-06T12:59:23;10.32;;;7.30;;
37339;SDS011;23223;51.006;7.610;2024-03-06T13:01:49;5.93;;;4.28;;
37339;SDS011;23223;51.006;7.610;2024-03-06T13:04:22;5.78;;;4.50;;
37339;SDS011;23223;51.006;7.610;2024-03-06T13:06:47;5.78;;;3.75;;
37339;SDS011;23223;51.006;7.610;2024-03-06T13:09:19;8.13;;;4.97;;
37339;SDS011;23223;51.006;7.610;2024-03-06T13:11:44;5.93;;;4.85;;
37339;SDS011;23223;51.006;7.610;2024-03-06T13:14:19;7.07;;;4.75;;
37339;SDS011;23223;51.006;7.610;2024-03-06T13:16:47;6.78;;;5.03;;
37339;SDS011;23223;51.006;7.610;2024-03-06T13:19:12;7.25;;;4.30;;
37339;SDS011;23223;51.006;7.610;2024-03-06T13:21:38;15.95;;;5.63;;
37339;SDS011;23223;51.006;7.610;2024-03-06T13:24:04;6.22;;;3.95;;
37339;SDS011;23223;51.006;7.610;2024-03-06T13:26:32;8.80;;;6.38;;
37339;SDS011;23223;51.006;7.610;2024-03-06T13:28:58;12.45;;;6.10;;
37339;SDS011;23223;51.006;7.610;2024-03-06T13:31:24;9.15;;;5.50;;
37339;SDS011;23223;51.006;7.610;2024-03-06T13:33:50;7.43;;;5.75;;
37339;SDS011;23223;51.006;7.610;2024-03-06T13:36:15;10.75;;;5.97;;
37339;SDS011;23223;51.006;7.610;2024-03-06T13:38:41;7.47;;;4.90;;
37339;SDS011;23223;51.006;7.610;2024-03-06T13:41:06;6.95;;;4.57;;
37339;SDS011;23223;51.006;7.610;2024-03-06T13:43:32;6.38;;;4.78;;
37339;SDS011;23223;51.006;7.610;2024-03-06T13:45:57;6.97;;;4.78;;
37339;SDS011;23223;51.006;7.610;2024-03-06T13:48:23;7.95;;;4.93;;
37339;SDS011;23223;51.006;7.610;2024-03-06T13:50:49;10.32;;;4.88;;
37339;SDS011;23223;51.006;7.610;2024-03-06T13:53:15;6.20;;;4.60;;
37339;SDS011;23223;51.006;7.610;2024-03-06T13:55:40;6.60;;;4.38;;
37339;SDS011;23223;51.006;7.610;2024-03-06T13:58:06;6.10;;;4.50;;
37339;SDS011;23223;51.006;7.610;2024-03-06T14:00:32;7.93;;;4.25;;
37339;SDS011;23223;51.006;7.610;2024-03-06T14:02:59;6.95;;;4.65;;
37339;SDS011;23223;51.006;7.610;2024-03-06T14:05:25;5.97;;;4.45;;
37339;SDS011;23223;51.006;7.610;2024-03-06T14:07:51;7.15;;;4.45;;
37339;SDS011;23223;51.006;7.610;2024-03-06T14:10:17;8.38;;;6.03;;
37339;SDS011;23223;51.006;7.610;2024-03-06T14:12:46;9.57;;;5.72;;
37339;SDS011;23223;51.006;7.610;2024-03-06T14:15:16;6.30;;;4.28;;
37339;SDS011;23223;51.006;7.610;2024-03-06T14:17:44;5.95;;;4.22;;
37339;SDS011;23223;51.006;7.610;2024-03-06T14:20:10;7.45;;;4.70;;
37339;SDS011;23223;51.006;7.610;2024-03-06T14:22:40;7.90;;;5.38;;
37339;SDS011;23223;51.006;7.610;2024-03-06T14:25:07;6.45;;;4.20;;
37339;SDS011;23223;51.006;7.610;2024-03-06T14:27:33;5.10;;;3.78;;
37339;SDS011;23223;51.006;7.610;2024-03-06T14:30:00;8.32;;;4.72;;
37339;SDS011;23223;51.006;7.610;2024-03-06T14:32:34;7.20;;;4.72;;
37339;SDS011;23223;51.006;7.610;2024-03-06T14:35:00;5.28;;;4.03;;
37339;SDS011;23223;51.006;7.610;2024-03-06T14:37:28;4.53;;;3.20;;
37339;SDS011;23223;51.006;7.610;2024-03-06T14:39:54;5.95;;;4.35;;
37339;SDS011;23223;51.006;7.610;2024-03-06T14:42:20;9.48;;;4.53;;